createdAt,value
2019-04-03T00:00:09.683Z,4.17
2019-04-03T00:02:38.324Z,4.05
2019-04-03T00:05:07.773Z,3.98
2019-04-03T00:07:36.649Z,4.00
2019-04-03T00:10:07.761Z,4.25
2019-04-03T00:12:36.892Z,4.20
2019-04-03T00:15:06.832Z,3.62
2019-04-03T00:17:35.718Z,4.15
2019-04-03T00:20:07.161Z,4.10
2019-04-03T00:22:37.366Z,4.22
2019-04-03T00:25:07.808Z,3.90
2019-04-03T00:27:57.085Z,4.55
2019-04-03T00:30:25.844Z,4.67
2019-04-03T00:32:54.630Z,4.20
2019-04-03T00:35:24.279Z,4.70
2019-04-03T00:37:53.825Z,4.50
2019-04-03T00:40:24.735Z,4.12
2019-04-03T00:42:54.643Z,4.45
2019-04-03T00:45:24.648Z,5.12
2019-04-03T00:47:55.540Z,4.78
2019-04-03T00:50:26.167Z,4.85
2019-04-03T00:52:57.064Z,4.83
2019-04-03T00:55:26.670Z,4.62
2019-04-03T00:57:56.539Z,4.92
2019-04-03T01:00:26.473Z,4.42
2019-04-03T01:02:58.147Z,4.97
2019-04-03T01:05:28.068Z,5.17
2019-04-03T01:07:59.243Z,5.50
2019-04-03T01:10:27.989Z,5.03
2019-04-03T01:12:57.531Z,5.15
2019-04-03T01:15:26.301Z,5.25
2019-04-03T01:17:55.097Z,5.17
2019-04-03T01:20:23.772Z,5.17
2019-04-03T01:22:52.521Z,4.80
2019-04-03T01:25:21.280Z,5.47
2019-04-03T01:27:51.092Z,4.97
2019-04-03T01:30:19.861Z,5.53
2019-04-03T01:32:48.793Z,5.65
2019-04-03T01:35:17.979Z,6.00
2019-04-03T01:37:47.855Z,5.25
2019-04-03T01:40:18.732Z,5.50
2019-04-03T01:42:47.601Z,5.37
2019-04-03T01:45:16.406Z,5.75
2019-04-03T01:47:45.151Z,4.92
2019-04-03T01:50:14.555Z,5.97
2019-04-03T01:52:43.319Z,6.28
2019-04-03T01:55:12.162Z,6.25
2019-04-03T01:57:40.947Z,6.67
2019-04-03T02:00:10.623Z,6.70
2019-04-03T02:02:39.557Z,7.00
2019-04-03T02:05:12.390Z,6.28
2019-04-03T02:07:39.835Z,5.95
2019-04-03T02:10:15.967Z,6.12
2019-04-03T02:12:44.962Z,6.42
2019-04-03T02:15:14.131Z,5.87
2019-04-03T02:17:42.900Z,6.05
2019-04-03T02:20:12.249Z,6.55
2019-04-03T02:22:41.043Z,6.22
2019-04-03T02:25:09.796Z,5.97
2019-04-03T02:27:38.575Z,5.72
2019-04-03T02:30:12.319Z,6.95
2019-04-03T02:32:39.850Z,6.87
2019-04-03T02:35:08.693Z,6.65
2019-04-03T02:37:37.628Z,6.20
2019-04-03T02:40:07.501Z,5.83
2019-04-03T02:42:36.229Z,6.58
2019-04-03T02:45:06.945Z,6.35
2019-04-03T02:47:35.734Z,6.15
2019-04-03T02:50:05.678Z,6.25
2019-04-03T02:52:34.976Z,6.50
2019-04-03T02:55:06.982Z,6.60
2019-04-03T02:57:34.273Z,6.53
2019-04-03T03:00:03.058Z,7.12
2019-04-03T03:02:31.861Z,6.47
2019-04-03T03:05:01.119Z,7.25
2019-04-03T03:07:29.998Z,7.65
2019-04-03T03:09:58.910Z,7.65
2019-04-03T03:12:28.746Z,6.97
2019-04-03T03:14:57.813Z,7.65
2019-04-03T03:17:28.835Z,7.58
2019-04-03T03:20:05.162Z,7.70
2019-04-03T03:22:31.092Z,7.85
2019-04-03T03:25:00.947Z,7.92
2019-04-03T03:27:30.382Z,7.62
2019-04-03T03:30:00.229Z,7.78
2019-04-03T03:32:34.080Z,7.55
2019-04-03T03:35:09.859Z,8.38
2019-04-03T03:37:34.191Z,7.95
2019-04-03T03:40:02.321Z,7.97
2019-04-03T03:42:32.755Z,8.78
2019-04-03T03:45:04.813Z,7.87
2019-04-03T03:47:36.410Z,8.50
2019-04-03T03:50:07.693Z,8.15
2019-04-03T03:52:38.289Z,8.53
2019-04-03T03:55:08.591Z,8.23
2019-04-03T03:57:40.500Z,8.63
2019-04-03T04:00:10.244Z,8.40
2019-04-03T04:02:43.029Z,8.23
2019-04-03T04:05:11.565Z,8.08
2019-04-03T04:07:40.187Z,8.45
2019-04-03T04:10:08.941Z,8.90
2019-04-03T04:12:41.293Z,9.40
2019-04-03T04:15:10.089Z,13.13
2019-04-03T04:17:39.196Z,7.83
2019-04-03T04:20:08.432Z,8.80
2019-04-03T04:22:38.493Z,9.98
2019-04-03T04:25:08.068Z,9.58
2019-04-03T04:27:38.559Z,8.70
2019-04-03T04:30:07.603Z,9.23
2019-04-03T04:32:36.600Z,10.03
2019-04-03T04:35:10.187Z,9.73
2019-04-03T04:37:40.073Z,12.73
2019-04-03T04:40:08.087Z,10.30
2019-04-03T04:42:36.853Z,9.90
2019-04-03T04:45:06.925Z,9.95
2019-04-03T04:47:35.802Z,10.35
2019-04-03T04:50:05.576Z,11.22
2019-04-03T04:52:34.421Z,11.57
2019-04-03T04:55:03.275Z,10.72
2019-04-03T04:57:32.131Z,11.05
2019-04-03T05:00:00.870Z,11.68
2019-04-03T05:02:29.740Z,11.53
2019-04-03T05:04:58.672Z,11.90
2019-04-03T05:07:30.304Z,11.73
2019-04-03T05:09:57.997Z,11.93
2019-04-03T05:12:26.737Z,11.78
2019-04-03T05:14:55.594Z,11.10
2019-04-03T05:17:27.270Z,11.43
2019-04-03T05:19:56.207Z,12.00
2019-04-03T05:22:25.063Z,10.70
2019-04-03T05:24:53.956Z,10.78
2019-04-03T05:27:22.727Z,10.75
2019-04-03T05:29:51.814Z,9.58
2019-04-03T05:32:21.157Z,7.05
2019-04-03T05:34:49.913Z,6.70
2019-04-03T05:37:20.159Z,5.40
2019-04-03T05:39:49.753Z,5.35
2019-04-03T05:42:18.715Z,4.78
2019-04-03T05:44:47.487Z,5.10
2019-04-03T05:47:16.443Z,4.47
2019-04-03T05:49:46.776Z,4.95
2019-04-03T05:52:15.639Z,3.80
2019-04-03T05:54:44.926Z,4.20
2019-04-03T05:57:14.470Z,5.03
2019-04-03T05:59:44.545Z,3.72
2019-04-03T06:02:16.819Z,4.30
2019-04-03T06:04:44.002Z,3.98
2019-04-03T06:07:12.784Z,4.40
2019-04-03T06:09:41.634Z,3.35
2019-04-03T06:12:13.069Z,3.47
2019-04-03T06:14:40.859Z,4.17
2019-04-03T06:17:09.711Z,4.00
2019-04-03T06:19:39.778Z,3.65
2019-04-03T06:22:10.622Z,3.02
2019-04-03T06:24:39.280Z,3.47
2019-04-03T06:27:10.044Z,3.67
2019-04-03T06:29:38.580Z,4.22
2019-04-03T06:32:07.335Z,4.12
2019-04-03T06:34:38.455Z,3.70
2019-04-03T06:37:06.871Z,5.05
2019-04-03T06:39:35.733Z,4.87
2019-04-03T06:42:04.709Z,5.50
2019-04-03T06:44:33.675Z,4.35
2019-04-03T06:47:02.821Z,6.30
2019-04-03T06:49:31.788Z,5.12
2019-04-03T06:52:00.563Z,9.90
2019-04-03T06:54:31.048Z,10.18
2019-04-03T06:57:00.039Z,7.42
2019-04-03T06:59:30.171Z,7.65
2019-04-03T07:01:59.153Z,5.75
2019-04-03T07:04:28.052Z,5.80
2019-04-03T07:06:56.913Z,7.35
2019-04-03T07:09:34.279Z,8.80
2019-04-03T07:11:57.493Z,7.45
2019-04-03T07:14:27.150Z,6.12
2019-04-03T07:16:56.219Z,9.65
2019-04-03T07:19:24.983Z,11.60
2019-04-03T07:21:55.189Z,9.23
2019-04-03T07:24:24.562Z,7.25
2019-04-03T07:26:53.368Z,7.10
2019-04-03T07:29:24.927Z,9.08
2019-04-03T07:31:54.853Z,12.10
2019-04-03T07:34:23.212Z,4.00
2019-04-03T07:36:52.015Z,4.28
2019-04-03T07:39:20.780Z,5.97
2019-04-03T07:41:49.603Z,4.53
2019-04-03T07:44:18.705Z,3.08
2019-04-03T07:46:48.013Z,14.35
2019-04-03T07:49:17.083Z,3.40
2019-04-03T07:51:45.867Z,2.95
2019-04-03T07:54:14.878Z,3.00
2019-04-03T07:56:43.777Z,3.90
2019-04-03T07:59:12.808Z,2.58
2019-04-03T08:01:41.869Z,3.65
2019-04-03T08:04:10.888Z,3.50
2019-04-03T08:06:40.216Z,3.35
2019-04-03T08:09:10.383Z,3.47
2019-04-03T08:11:40.719Z,3.98
2019-04-03T08:14:09.969Z,3.83
2019-04-03T08:16:41.969Z,3.87
2019-04-03T08:19:09.505Z,4.90
2019-04-03T08:21:38.340Z,4.40
2019-04-03T08:24:08.148Z,4.60
2019-04-03T08:26:37.478Z,5.37
2019-04-03T08:29:06.305Z,4.90
2019-04-03T08:31:35.166Z,5.72
2019-04-03T08:34:14.885Z,5.00
2019-04-03T08:36:34.322Z,5.15
2019-04-03T08:39:04.640Z,5.28
2019-04-03T08:41:36.443Z,4.92
2019-04-03T08:44:07.738Z,5.67
2019-04-03T08:46:35.321Z,5.42
2019-04-03T08:49:04.479Z,2.70
2019-04-03T08:51:33.970Z,2.60
2019-04-03T08:54:03.417Z,2.30
2019-04-03T08:56:32.156Z,2.20
2019-04-03T08:59:01.018Z,2.25
2019-04-03T09:01:30.186Z,2.87
2019-04-03T09:03:59.242Z,2.83
2019-04-03T09:06:28.148Z,3.12
2019-04-03T09:08:57.847Z,3.70
2019-04-03T09:11:27.804Z,3.92
2019-04-03T09:13:56.742Z,4.00
2019-04-03T09:16:25.694Z,7.15
2019-04-03T09:18:54.693Z,4.65
2019-04-03T09:21:27.713Z,5.50
2019-04-03T09:23:57.876Z,4.87
2019-04-03T09:26:27.665Z,4.40
2019-04-03T09:28:56.747Z,4.35
2019-04-03T09:31:25.727Z,6.37
2019-04-03T09:33:54.804Z,3.58
2019-04-03T09:36:25.918Z,3.08
2019-04-03T09:38:58.244Z,2.90
2019-04-03T09:41:28.850Z,8.75
2019-04-03T09:43:57.727Z,3.83
2019-04-03T09:46:26.783Z,5.28
2019-04-03T09:48:55.935Z,4.08
2019-04-03T09:51:25.365Z,2.70
2019-04-03T09:53:57.135Z,3.00
2019-04-03T09:56:26.035Z,3.25
2019-04-03T09:58:56.187Z,3.00
2019-04-03T10:01:25.596Z,3.25
2019-04-03T10:03:55.695Z,2.92
2019-04-03T10:06:26.470Z,3.33
2019-04-03T10:08:55.821Z,2.70
2019-04-03T10:11:24.744Z,3.70
2019-04-03T10:13:54.914Z,3.12
2019-04-03T10:16:24.447Z,2.67
2019-04-03T10:18:53.561Z,3.10
2019-04-03T10:21:22.704Z,2.58
2019-04-03T10:23:51.542Z,4.20
2019-04-03T10:26:22.041Z,2.85
2019-04-03T10:28:50.860Z,2.80
2019-04-03T10:31:19.751Z,3.15
2019-04-03T10:33:48.621Z,2.67
2019-04-03T10:36:18.526Z,3.02
2019-04-03T10:38:48.830Z,3.27
2019-04-03T10:41:19.515Z,2.60
2019-04-03T10:43:51.131Z,2.80
2019-04-03T10:46:20.099Z,2.72
2019-04-03T10:48:49.474Z,2.75
2019-04-03T10:51:18.706Z,2.72
2019-04-03T10:53:48.938Z,2.40
2019-04-03T10:56:18.209Z,3.05
2019-04-03T10:58:50.395Z,2.10
2019-04-03T11:01:20.717Z,2.33
2019-04-03T11:03:49.551Z,2.17
2019-04-03T11:06:18.414Z,4.17
2019-04-03T11:08:47.693Z,2.80
2019-04-03T11:11:16.529Z,2.50
2019-04-03T11:13:45.329Z,2.47
2019-04-03T11:16:15.084Z,2.85
2019-04-03T11:18:58.733Z,3.37
2019-04-03T11:21:16.701Z,3.50
2019-04-03T11:23:45.973Z,2.60
2019-04-03T11:26:17.650Z,2.60
2019-04-03T11:28:45.344Z,3.15
2019-04-03T11:31:24.581Z,2.60
2019-04-03T11:33:46.049Z,2.60
2019-04-03T11:36:16.896Z,3.02
2019-04-03T11:38:45.837Z,2.05
2019-04-03T11:41:18.298Z,2.15
2019-04-03T11:43:45.081Z,1.98
2019-04-03T11:46:14.038Z,2.40
2019-04-03T11:48:43.847Z,3.00
2019-04-03T11:51:13.093Z,4.55
2019-04-03T11:53:45.335Z,2.65
2019-04-03T11:56:14.167Z,2.60
2019-04-03T11:58:43.399Z,2.80
2019-04-03T12:01:15.913Z,3.22
2019-04-03T12:03:44.666Z,3.60
2019-04-03T12:06:16.072Z,4.20
2019-04-03T12:08:46.045Z,2.98
2019-04-03T12:11:15.044Z,2.60
2019-04-03T12:13:45.985Z,2.75
2019-04-03T12:16:14.384Z,3.02
2019-04-03T12:18:43.277Z,2.85
2019-04-03T12:21:14.117Z,4.35
2019-04-03T12:23:42.692Z,3.30
2019-04-03T12:26:12.404Z,3.85
2019-04-03T12:28:41.967Z,4.05
2019-04-03T12:31:10.901Z,6.17
2019-04-03T12:33:51.700Z,4.95
2019-04-03T12:36:11.091Z,7.55
2019-04-03T12:38:40.874Z,4.53
2019-04-03T12:41:10.896Z,2.80
2019-04-03T12:43:39.813Z,3.20
2019-04-03T12:46:08.708Z,4.35
2019-04-03T12:48:37.935Z,4.00
2019-04-03T12:51:07.055Z,3.37
2019-04-03T12:53:35.857Z,3.10
2019-04-03T12:56:04.824Z,3.10
2019-04-03T12:58:34.407Z,3.92
2019-04-03T13:01:04.685Z,2.90
2019-04-03T13:03:36.428Z,2.60
2019-04-03T13:06:04.927Z,3.08
2019-04-03T13:08:33.974Z,3.22
2019-04-03T13:11:04.403Z,3.52
2019-04-03T13:13:34.927Z,3.65
2019-04-03T13:16:07.366Z,3.37
2019-04-03T13:18:42.987Z,4.00
2019-04-03T13:21:09.901Z,3.40
2019-04-03T13:23:38.916Z,4.78
2019-04-03T13:26:07.716Z,3.65
2019-04-03T13:28:40.238Z,3.47
2019-04-03T13:31:08.543Z,3.20
2019-04-03T13:33:38.706Z,2.87
2019-04-03T13:36:08.546Z,3.02
2019-04-03T13:38:37.509Z,3.30
2019-04-03T13:41:09.291Z,2.95
2019-04-03T13:43:36.951Z,2.58
2019-04-03T13:46:05.948Z,3.00
2019-04-03T13:48:35.170Z,3.45
2019-04-03T13:51:04.144Z,3.55
2019-04-03T13:53:33.032Z,3.50
2019-04-03T13:56:02.121Z,3.62
2019-04-03T13:58:31.009Z,3.80
2019-04-03T14:01:02.861Z,3.27
2019-04-03T14:03:31.998Z,2.67
2019-04-03T14:06:03.559Z,2.10
2019-04-03T14:08:31.362Z,2.65
2019-04-03T14:11:00.402Z,2.42
2019-04-03T14:13:29.303Z,2.30
2019-04-03T14:15:58.378Z,2.40
2019-04-03T14:18:28.406Z,2.42
2019-04-03T14:20:57.928Z,2.22
2019-04-03T14:23:27.405Z,2.27
2019-04-03T14:26:04.836Z,2.33
2019-04-03T14:28:30.110Z,3.00
2019-04-03T14:30:59.331Z,3.25
2019-04-03T14:33:41.647Z,2.42
2019-04-03T14:36:00.302Z,2.60
2019-04-03T14:38:29.284Z,2.20
2019-04-03T14:40:58.262Z,2.33
2019-04-03T14:43:35.681Z,3.02
2019-04-03T14:46:04.061Z,2.30
2019-04-03T14:48:33.177Z,2.40
2019-04-03T14:51:06.286Z,2.40
2019-04-03T14:53:35.801Z,2.42
2019-04-03T14:56:04.979Z,3.20
2019-04-03T14:58:33.949Z,2.40
2019-04-03T15:01:03.173Z,2.70
2019-04-03T15:03:34.420Z,2.60
2019-04-03T15:06:03.796Z,2.00
2019-04-03T15:08:32.627Z,2.40
2019-04-03T15:11:03.660Z,2.55
2019-04-03T15:13:32.299Z,11.15
2019-04-03T15:16:03.266Z,3.62
2019-04-03T15:18:35.254Z,2.60
2019-04-03T15:21:05.385Z,2.22
2019-04-03T15:23:39.985Z,2.60
2019-04-03T15:26:08.088Z,2.30
2019-04-03T15:28:38.304Z,2.50
2019-04-03T15:31:07.770Z,2.60
2019-04-03T15:33:36.569Z,3.12
2019-04-03T15:36:05.738Z,5.25
2019-04-03T15:38:35.117Z,2.27
2019-04-03T15:41:04.523Z,2.33
2019-04-03T15:43:37.700Z,2.20
2019-04-03T15:46:06.568Z,2.25
2019-04-03T15:48:39.675Z,3.20
2019-04-03T15:51:12.090Z,3.27
2019-04-03T15:56:21.117Z,3.50
2019-04-03T15:58:58.609Z,3.30
2019-04-03T16:01:31.163Z,3.62
2019-04-03T16:04:00.095Z,5.37
2019-04-03T16:06:37.495Z,4.40
2019-04-03T16:09:22.270Z,4.40
2019-04-03T16:11:55.516Z,5.50
2019-04-03T16:14:24.562Z,3.90
2019-04-03T16:16:56.578Z,3.62
2019-04-03T16:19:33.683Z,3.90
2019-04-03T16:22:10.907Z,3.30
2019-04-03T16:24:46.626Z,3.40
2019-04-03T16:27:13.927Z,3.70
2019-04-03T16:29:42.760Z,4.78
2019-04-03T16:32:14.825Z,8.25
2019-04-03T16:38:02.315Z,3.00
2019-04-03T16:40:37.793Z,3.77
2019-04-03T16:43:07.116Z,3.80
2019-04-03T16:45:38.940Z,4.35
2019-04-03T16:48:25.500Z,3.90
2019-04-03T16:50:53.213Z,4.80
2019-04-03T16:53:20.806Z,3.70
2019-04-03T16:55:49.942Z,2.27
2019-04-03T16:58:18.812Z,2.22
2019-04-03T17:00:47.832Z,3.85
2019-04-03T17:03:19.125Z,3.95
2019-04-03T17:05:51.863Z,4.03
2019-04-03T17:08:27.561Z,3.50
2019-04-03T17:10:56.441Z,5.42
2019-04-03T17:13:25.235Z,6.92
2019-04-03T17:16:15.066Z,7.33
2019-04-03T17:18:55.396Z,7.50
2019-04-03T17:21:36.973Z,6.47
2019-04-03T17:24:02.745Z,3.58
2019-04-03T17:26:32.042Z,4.17
2019-04-03T17:29:05.839Z,4.75
2019-04-03T17:31:33.099Z,6.35
2019-04-03T17:34:07.182Z,6.60
2019-04-03T17:39:10.078Z,5.95
2019-04-03T17:41:50.833Z,4.92
2019-04-03T17:44:28.332Z,7.20
2019-04-03T17:46:57.804Z,4.65
2019-04-03T17:49:28.450Z,5.00
2019-04-03T17:51:58.213Z,5.25
2019-04-03T17:54:27.253Z,5.00
2019-04-03T17:56:57.152Z,8.25
2019-04-03T17:59:25.930Z,6.22
2019-04-03T18:01:57.510Z,4.95
2019-04-03T18:04:26.263Z,5.20
2019-04-03T18:06:57.329Z,5.05
2019-04-03T18:09:25.711Z,3.95
2019-04-03T18:11:57.838Z,4.83
2019-04-03T18:14:26.534Z,5.83
2019-04-03T18:16:56.155Z,5.92
2019-04-03T18:19:36.753Z,5.90
2019-04-03T18:21:55.904Z,6.20
2019-04-03T18:24:24.792Z,6.00
2019-04-03T18:26:55.959Z,5.83
2019-04-03T18:29:24.943Z,5.45
2019-04-03T18:31:53.819Z,5.42
2019-04-03T18:34:22.622Z,7.28
2019-04-03T18:36:52.885Z,6.20
2019-04-03T18:39:22.923Z,6.28
2019-04-03T18:41:51.807Z,7.00
2019-04-03T18:44:22.443Z,11.83
2019-04-03T18:46:51.213Z,7.40
2019-04-03T18:49:20.000Z,6.97
2019-04-03T18:51:48.910Z,6.50
2019-04-03T18:54:17.854Z,6.83
2019-04-03T18:56:46.708Z,7.65
2019-04-03T18:59:15.564Z,6.92
2019-04-03T19:01:45.451Z,8.08
2019-04-03T19:04:17.060Z,12.60
2019-04-03T19:06:45.955Z,8.50
2019-04-03T19:09:16.246Z,8.55
2019-04-03T19:11:51.300Z,12.43
2019-04-03T19:14:27.385Z,10.48
2019-04-03T19:16:54.701Z,10.20
2019-04-03T19:19:23.806Z,7.85
2019-04-03T19:21:54.360Z,7.53
2019-04-03T19:24:24.683Z,8.03
2019-04-03T19:26:53.900Z,7.35
2019-04-03T19:29:28.249Z,6.75
2019-04-03T19:31:55.861Z,5.83
2019-04-03T19:34:24.670Z,5.05
2019-04-03T19:36:53.461Z,5.78
2019-04-03T19:39:22.297Z,5.12
2019-04-03T19:41:51.003Z,4.70
2019-04-03T19:44:21.235Z,4.72
2019-04-03T19:46:50.102Z,4.72
2019-04-03T19:49:21.515Z,4.35
2019-04-03T19:51:50.388Z,4.55
2019-04-03T19:54:19.163Z,4.87
2019-04-03T19:56:47.957Z,4.25
2019-04-03T19:59:18.480Z,4.85
2019-04-03T20:01:47.282Z,5.03
2019-04-03T20:04:16.378Z,4.85
2019-04-03T20:06:45.364Z,5.33
2019-04-03T20:09:14.214Z,5.22
2019-04-03T20:11:48.494Z,5.55
2019-04-03T20:14:17.227Z,5.05
2019-04-03T20:16:50.656Z,4.87
2019-04-03T20:21:53.381Z,5.28
2019-04-03T20:24:25.314Z,5.55
2019-04-03T20:27:21.101Z,5.78
2019-04-03T20:29:47.037Z,5.62
2019-04-03T20:32:28.306Z,6.00
2019-04-03T20:35:02.906Z,5.67
2019-04-03T20:37:51.411Z,6.05
2019-04-03T20:40:16.068Z,6.08
2019-04-03T20:42:49.117Z,5.15
2019-04-03T20:45:19.170Z,6.15
2019-04-03T20:48:14.689Z,6.40
2019-04-03T20:50:42.660Z,6.03
2019-04-03T20:53:17.207Z,5.80
2019-04-03T20:55:46.365Z,7.90
2019-04-03T20:58:15.254Z,6.50
2019-04-03T21:00:51.519Z,6.83
2019-04-03T21:03:20.144Z,6.00
2019-04-03T21:06:13.343Z,6.25
2019-04-03T21:08:49.496Z,5.62
2019-04-03T21:11:29.675Z,5.97
2019-04-03T21:14:00.023Z,5.90
2019-04-03T21:16:47.867Z,6.37
2019-04-03T21:19:17.389Z,6.10
2019-04-03T21:21:49.274Z,6.25
2019-04-03T21:24:18.046Z,5.90
2019-04-03T21:26:47.131Z,5.90
2019-04-03T21:29:40.047Z,5.62
2019-04-03T21:32:11.747Z,5.58
2019-04-03T21:34:43.232Z,5.67
2019-04-03T21:40:08.773Z,5.72
2019-04-03T21:42:40.246Z,5.50
2019-04-03T21:45:10.558Z,6.53
2019-04-03T21:47:40.911Z,5.60
2019-04-03T21:50:10.446Z,6.12
2019-04-03T21:52:39.229Z,6.40
2019-04-03T21:55:08.208Z,6.53
2019-04-03T21:57:38.425Z,5.95
2019-04-03T22:00:15.969Z,5.83
2019-04-03T22:02:45.141Z,6.20
2019-04-03T22:05:33.285Z,6.03
2019-04-03T22:08:03.663Z,5.33
2019-04-03T22:13:26.505Z,6.10
2019-04-03T22:15:56.892Z,6.00
2019-04-03T22:18:35.600Z,6.70
2019-04-03T22:21:05.902Z,5.85
2019-04-03T22:23:35.942Z,6.15
2019-04-03T22:26:05.272Z,6.55
2019-04-03T22:28:34.060Z,6.35
2019-04-03T22:31:02.963Z,6.30
2019-04-03T22:33:31.835Z,5.80
2019-04-03T22:36:03.416Z,5.80
2019-04-03T22:38:37.603Z,6.35
2019-04-03T22:41:05.566Z,6.42
2019-04-03T22:43:34.463Z,6.10
2019-04-03T22:46:03.255Z,5.95
2019-04-03T22:48:32.144Z,6.20
2019-04-03T22:51:00.914Z,6.10
2019-04-03T22:53:29.790Z,6.08
2019-04-03T22:55:58.607Z,6.20
2019-04-03T22:58:27.503Z,5.72
2019-04-03T23:00:57.224Z,6.83
2019-04-03T23:03:26.785Z,6.25
2019-04-03T23:05:55.571Z,6.10
2019-04-03T23:08:24.412Z,6.17
2019-04-03T23:10:53.288Z,6.33
2019-04-03T23:13:22.167Z,6.45
2019-04-03T23:16:23.956Z,6.42
2019-04-03T23:19:00.069Z,6.35
2019-04-03T23:21:40.525Z,6.45
2019-04-03T23:24:14.196Z,6.00
2019-04-03T23:26:41.305Z,6.15
2019-04-03T23:29:10.123Z,7.33
2019-04-03T23:31:38.898Z,7.05
2019-04-03T23:34:07.775Z,6.20
2019-04-03T23:36:36.744Z,6.75
2019-04-03T23:39:08.115Z,7.20
2019-04-03T23:41:37.031Z,7.35
2019-04-03T23:44:05.825Z,6.92
2019-04-03T23:46:34.720Z,6.75
2019-04-03T23:49:03.545Z,6.72
2019-04-03T23:51:33.124Z,6.78
2019-04-03T23:54:02.823Z,6.60
2019-04-03T23:56:32.176Z,6.70
2019-04-03T23:59:01.018Z,6.33
